createdAt,value
2017-12-25T00:01:02.450Z,0
2017-12-25T00:02:11.044Z,0
2017-12-25T00:03:19.651Z,0
2017-12-25T00:04:28.267Z,0
2017-12-25T00:05:36.866Z,0
2017-12-25T00:06:45.469Z,0
2017-12-25T00:07:54.061Z,0
2017-12-25T00:09:02.672Z,0
2017-12-25T00:10:11.282Z,0
2017-12-25T00:11:19.875Z,0
2017-12-25T00:12:28.480Z,0
2017-12-25T00:13:37.092Z,0
2017-12-25T00:14:45.683Z,0
2017-12-25T00:15:54.286Z,0
2017-12-25T00:17:02.901Z,0
2017-12-25T00:18:11.499Z,0
2017-12-25T00:19:20.095Z,0
2017-12-25T00:20:28.700Z,0
2017-12-25T00:21:37.305Z,0
2017-12-25T00:22:46.184Z,0
2017-12-25T00:23:54.779Z,0
2017-12-25T00:25:03.382Z,0
2017-12-25T00:26:11.993Z,0
2017-12-25T00:27:20.589Z,0
2017-12-25T00:28:29.188Z,0
2017-12-25T00:29:37.802Z,0
2017-12-25T00:30:46.409Z,0
2017-12-25T00:31:54.999Z,0
2017-12-25T00:33:03.613Z,0
2017-12-25T00:34:12.220Z,0
2017-12-25T00:35:21.083Z,0
2017-12-25T00:36:29.681Z,0
2017-12-25T00:37:38.273Z,0
2017-12-25T00:38:46.890Z,0
2017-12-25T00:39:55.491Z,0
2017-12-25T00:41:04.087Z,0
2017-12-25T00:42:12.700Z,0
2017-12-25T00:43:21.308Z,0
2017-12-25T00:44:30.158Z,0
2017-12-25T00:45:38.769Z,0
2017-12-25T00:46:47.376Z,0
2017-12-25T00:47:55.976Z,0
2017-12-25T00:49:04.584Z,0
2017-12-25T00:50:13.203Z,0
2017-12-25T00:51:22.057Z,0
2017-12-25T00:52:30.657Z,0
2017-12-25T00:53:39.267Z,0
2017-12-25T00:54:47.869Z,0
2017-12-25T00:55:56.467Z,0
2017-12-25T00:57:05.336Z,0
2017-12-25T00:58:13.939Z,0
2017-12-25T00:59:22.786Z,0
2017-12-25T01:00:31.406Z,0
2017-12-25T01:01:40.004Z,0
2017-12-25T01:02:48.602Z,0
2017-12-25T01:03:57.210Z,0
2017-12-25T01:05:05.808Z,0
2017-12-25T01:06:14.424Z,0
2017-12-25T01:07:23.024Z,0
2017-12-25T01:08:31.616Z,0
2017-12-25T01:09:40.229Z,0
2017-12-25T01:10:48.835Z,0
2017-12-25T01:11:57.431Z,0
2017-12-25T01:13:06.042Z,0
2017-12-25T01:14:14.655Z,0
2017-12-25T01:15:23.248Z,0
2017-12-25T01:16:31.854Z,0
2017-12-25T01:17:40.465Z,0
2017-12-25T01:18:49.065Z,0
2017-12-25T01:19:57.673Z,0
2017-12-25T01:21:06.267Z,0
2017-12-25T01:22:14.874Z,0
2017-12-25T01:23:23.482Z,0
2017-12-25T01:24:32.076Z,0
2017-12-25T01:25:40.686Z,0
2017-12-25T01:26:49.294Z,0
2017-12-25T01:27:57.888Z,0
2017-12-25T01:29:06.492Z,0
2017-12-25T01:30:15.105Z,0
2017-12-25T01:31:23.702Z,0
2017-12-25T01:32:32.303Z,0
2017-12-25T01:33:40.908Z,0
2017-12-25T01:34:49.768Z,0
2017-12-25T01:35:58.385Z,0
2017-12-25T01:37:06.976Z,0
2017-12-25T01:38:15.582Z,0
2017-12-25T01:39:24.194Z,0
2017-12-25T01:40:32.793Z,0
2017-12-25T01:41:41.392Z,0
2017-12-25T01:42:50.005Z,0
2017-12-25T01:43:58.606Z,0
2017-12-25T01:45:07.201Z,0
2017-12-25T01:46:15.816Z,0
2017-12-25T01:47:24.424Z,0
2017-12-25T01:48:33.030Z,0
2017-12-25T01:49:41.627Z,0
2017-12-25T01:50:50.222Z,0
2017-12-25T01:51:58.840Z,0
2017-12-25T01:53:07.443Z,0
2017-12-25T01:54:16.034Z,0
2017-12-25T01:55:24.648Z,0
2017-12-25T01:56:33.253Z,0
2017-12-25T01:57:41.846Z,0
2017-12-25T01:58:50.717Z,0
2017-12-25T01:59:59.325Z,0
2017-12-25T02:01:07.921Z,0
2017-12-25T02:02:16.527Z,0
2017-12-25T02:03:25.122Z,0
2017-12-25T02:04:33.740Z,0
2017-12-25T02:05:42.348Z,0
2017-12-25T02:06:50.939Z,0
2017-12-25T02:07:59.804Z,0
2017-12-25T02:09:08.414Z,0
2017-12-25T02:10:17.012Z,0
2017-12-25T02:11:25.616Z,0
2017-12-25T02:12:34.494Z,0
2017-12-25T02:13:43.345Z,0
2017-12-25T02:14:51.952Z,0
2017-12-25T02:16:00.577Z,0
2017-12-25T02:17:09.159Z,0
2017-12-25T02:18:17.773Z,0
2017-12-25T02:19:26.357Z,0
2017-12-25T02:20:34.967Z,0
2017-12-25T02:21:43.583Z,0
2017-12-25T02:22:52.174Z,0
2017-12-25T02:24:00.777Z,0
2017-12-25T02:25:09.393Z,0
2017-12-25T02:26:17.987Z,0
2017-12-25T02:27:26.585Z,0
2017-12-25T02:28:35.201Z,0
2017-12-25T02:29:43.808Z,0
2017-12-25T02:30:52.400Z,0
2017-12-25T02:32:01.006Z,0
2017-12-25T02:33:09.611Z,0
2017-12-25T02:34:18.231Z,0
2017-12-25T02:35:26.826Z,0
2017-12-25T02:36:35.425Z,0
2017-12-25T02:37:44.045Z,0
2017-12-25T02:38:52.649Z,0
2017-12-25T02:40:01.240Z,0
2017-12-25T02:41:09.854Z,0
2017-12-25T02:42:18.462Z,0
2017-12-25T02:43:27.057Z,0
2017-12-25T02:44:35.664Z,0
2017-12-25T02:45:44.272Z,0
2017-12-25T02:46:52.870Z,0
2017-12-25T02:48:01.471Z,0
2017-12-25T02:49:10.085Z,0
2017-12-25T02:50:18.679Z,0
2017-12-25T02:51:27.283Z,0
2017-12-25T02:52:35.900Z,0
2017-12-25T02:53:44.512Z,0
2017-12-25T02:54:53.095Z,0
2017-12-25T02:56:01.714Z,0
2017-12-25T02:57:10.321Z,0
2017-12-25T02:58:18.911Z,0
2017-12-25T02:59:27.524Z,0
2017-12-25T03:00:36.127Z,0
2017-12-25T03:01:44.737Z,0
2017-12-25T03:02:53.334Z,0
2017-12-25T03:04:01.930Z,0
2017-12-25T03:05:10.544Z,0
2017-12-25T03:06:19.146Z,0
2017-12-25T03:07:27.747Z,0
2017-12-25T03:08:36.617Z,0
2017-12-25T03:09:45.224Z,0
2017-12-25T03:10:53.815Z,0
2017-12-25T03:12:02.424Z,0
2017-12-25T03:13:11.288Z,0
2017-12-25T03:14:19.884Z,0
2017-12-25T03:15:28.492Z,0
2017-12-25T03:16:37.350Z,0
2017-12-25T03:17:45.964Z,0
2017-12-25T03:18:54.573Z,0
2017-12-25T03:20:03.427Z,0
2017-12-25T03:21:12.036Z,0
2017-12-25T03:22:20.645Z,0
2017-12-25T03:23:29.238Z,0
2017-12-25T03:24:37.845Z,0
2017-12-25T03:25:46.462Z,0
2017-12-25T03:26:55.051Z,0
2017-12-25T03:28:03.653Z,0
2017-12-25T03:29:12.521Z,0
2017-12-25T03:30:21.123Z,0
2017-12-25T03:31:29.733Z,0
2017-12-25T03:32:38.330Z,0
2017-12-25T03:33:47.196Z,0
2017-12-25T03:34:55.807Z,0
2017-12-25T03:36:04.408Z,0
2017-12-25T03:37:13.007Z,0
2017-12-25T03:38:21.621Z,0
2017-12-25T03:39:30.220Z,0
2017-12-25T03:40:39.073Z,0
2017-12-25T03:41:47.689Z,0
2017-12-25T03:42:56.293Z,0
2017-12-25T03:44:04.885Z,0
2017-12-25T03:45:13.493Z,0
2017-12-25T03:46:22.096Z,0
2017-12-25T03:47:30.709Z,0
2017-12-25T03:48:39.305Z,0
2017-12-25T03:49:48.160Z,0
2017-12-25T03:50:56.781Z,0
2017-12-25T03:52:05.377Z,0
2017-12-25T03:53:13.970Z,0
2017-12-25T03:54:22.582Z,0
2017-12-25T03:55:31.188Z,0
2017-12-25T03:56:39.783Z,0
2017-12-25T03:57:48.395Z,0
2017-12-25T03:58:57.005Z,0
2017-12-25T04:00:05.867Z,0
2017-12-25T04:01:14.466Z,0
2017-12-25T04:02:23.065Z,0
2017-12-25T04:03:31.673Z,0
2017-12-25T04:04:40.280Z,0
2017-12-25T04:05:48.873Z,0
2017-12-25T04:06:57.484Z,0
2017-12-25T04:08:06.354Z,0
2017-12-25T04:09:15.205Z,0
2017-12-25T04:10:24.073Z,0
2017-12-25T04:11:32.686Z,0
2017-12-25T04:12:41.278Z,0
2017-12-25T04:13:49.880Z,0
2017-12-25T04:14:58.487Z,0
2017-12-25T04:16:07.094Z,0
2017-12-25T04:17:15.703Z,0
2017-12-25T04:18:24.296Z,0
2017-12-25T04:19:32.906Z,0
2017-12-25T04:20:41.520Z,0
2017-12-25T04:21:50.113Z,0
2017-12-25T04:22:58.717Z,0
2017-12-25T04:24:07.327Z,0
2017-12-25T04:25:15.925Z,0
2017-12-25T04:26:24.524Z,0
2017-12-25T04:27:33.137Z,0
2017-12-25T04:28:41.740Z,0
2017-12-25T04:29:50.351Z,0
2017-12-25T04:30:58.947Z,0
2017-12-25T04:32:07.550Z,0
2017-12-25T04:33:16.164Z,0
2017-12-25T04:34:24.759Z,0
2017-12-25T04:35:33.357Z,0
2017-12-25T04:36:41.970Z,0
2017-12-25T04:37:50.571Z,0
2017-12-25T04:38:59.169Z,0
2017-12-25T04:40:07.784Z,0
2017-12-25T04:41:16.390Z,0
2017-12-25T04:42:24.982Z,0
2017-12-25T04:43:33.646Z,0
2017-12-25T04:44:42.204Z,0
2017-12-25T04:45:50.804Z,0
2017-12-25T04:46:59.410Z,0
2017-12-25T04:48:08.025Z,0
2017-12-25T04:49:16.883Z,0
2017-12-25T04:50:25.484Z,0
2017-12-25T04:51:34.363Z,0
2017-12-25T04:52:42.962Z,0
2017-12-25T04:53:51.562Z,0
2017-12-25T04:55:00.436Z,0
2017-12-25T04:56:09.039Z,0
2017-12-25T04:57:17.632Z,0
2017-12-25T04:58:26.242Z,0
2017-12-25T04:59:35.104Z,0
2017-12-25T05:00:43.715Z,0
2017-12-25T05:01:52.312Z,0
2017-12-25T05:03:00.907Z,0
2017-12-25T05:04:09.525Z,0
2017-12-25T05:05:18.129Z,0
2017-12-25T05:06:26.720Z,0
2017-12-25T05:07:35.334Z,0
2017-12-25T05:08:43.941Z,0
2017-12-25T05:09:52.532Z,0
2017-12-25T05:11:01.141Z,0
2017-12-25T05:12:09.751Z,0
2017-12-25T05:13:18.347Z,0
2017-12-25T05:14:26.950Z,0
2017-12-25T05:15:35.546Z,0
2017-12-25T05:16:44.158Z,0
2017-12-25T05:17:52.765Z,0
2017-12-25T05:19:01.356Z,0
2017-12-25T05:20:09.970Z,0
2017-12-25T05:21:18.580Z,0
2017-12-25T05:22:27.172Z,0
2017-12-25T05:23:35.779Z,0
2017-12-25T05:24:44.403Z,0
2017-12-25T05:25:53.256Z,0
2017-12-25T05:27:01.864Z,0
2017-12-25T05:28:10.466Z,0
2017-12-25T05:29:19.075Z,0
2017-12-25T05:30:27.685Z,0
2017-12-25T05:31:36.538Z,0
2017-12-25T05:32:45.143Z,0
2017-12-25T05:33:53.764Z,0
2017-12-25T05:35:02.355Z,0
2017-12-25T05:36:10.955Z,0
2017-12-25T05:37:19.571Z,0
2017-12-25T05:38:28.167Z,0
2017-12-25T05:39:37.026Z,0
2017-12-25T05:40:45.643Z,0
2017-12-25T05:41:54.249Z,0
2017-12-25T05:43:02.852Z,0
2017-12-25T05:44:11.443Z,0
2017-12-25T05:45:20.044Z,0
2017-12-25T05:46:28.924Z,0
2017-12-25T05:47:37.522Z,0
2017-12-25T05:48:46.117Z,0
2017-12-25T05:49:54.734Z,0
2017-12-25T05:51:03.333Z,0
2017-12-25T05:52:11.929Z,0
2017-12-25T05:53:20.541Z,0
2017-12-25T05:54:29.150Z,0
2017-12-25T05:55:37.743Z,0
2017-12-25T05:56:46.353Z,0
2017-12-25T05:57:54.951Z,0
2017-12-25T05:59:03.561Z,0
2017-12-25T06:00:12.162Z,0
2017-12-25T06:01:20.752Z,0
2017-12-25T06:02:29.367Z,0
2017-12-25T06:03:37.974Z,0
2017-12-25T06:04:46.566Z,0
2017-12-25T06:05:55.174Z,0
2017-12-25T06:07:03.781Z,0
2017-12-25T06:08:12.376Z,0
2017-12-25T06:09:20.981Z,0
2017-12-25T06:10:29.596Z,0
2017-12-25T06:11:38.192Z,0
2017-12-25T06:12:46.799Z,0
2017-12-25T06:13:55.391Z,0
2017-12-25T06:15:04.004Z,0
2017-12-25T06:16:12.614Z,0
2017-12-25T06:17:21.202Z,0
2017-12-25T06:18:29.810Z,0
2017-12-25T06:19:38.422Z,0
2017-12-25T06:20:47.017Z,0
2017-12-25T06:21:55.884Z,0
2017-12-25T06:23:04.502Z,0
2017-12-25T06:24:13.100Z,0
2017-12-25T06:25:21.696Z,0
2017-12-25T06:26:30.302Z,0
2017-12-25T06:27:38.909Z,0
2017-12-25T06:28:47.526Z,0
2017-12-25T06:29:56.117Z,0
2017-12-25T06:31:04.719Z,0
2017-12-25T06:32:13.335Z,0
2017-12-25T06:33:21.928Z,0
2017-12-25T06:34:30.528Z,0
2017-12-25T06:35:39.139Z,0
2017-12-25T06:36:47.742Z,0
2017-12-25T06:37:56.332Z,0
2017-12-25T06:39:04.949Z,0
2017-12-25T06:40:13.553Z,0
2017-12-25T06:41:22.147Z,0
2017-12-25T06:42:30.755Z,0
2017-12-25T06:43:39.361Z,0
2017-12-25T06:44:47.957Z,0
2017-12-25T06:45:56.561Z,0
2017-12-25T06:47:05.176Z,0
2017-12-25T06:48:13.769Z,0
2017-12-25T06:49:22.373Z,0
2017-12-25T06:50:30.984Z,0
2017-12-25T06:51:39.580Z,0
2017-12-25T06:52:48.180Z,0
2017-12-25T06:53:56.796Z,0
2017-12-25T06:55:05.398Z,0
2017-12-25T06:56:14.004Z,0
2017-12-25T06:57:22.597Z,0
2017-12-25T06:58:31.199Z,0
2017-12-25T06:59:39.819Z,0
2017-12-25T07:00:48.411Z,0
2017-12-25T07:01:57.011Z,0
2017-12-25T07:03:05.884Z,0
2017-12-25T07:04:14.486Z,0
2017-12-25T07:05:23.085Z,0
2017-12-25T07:06:31.699Z,0
2017-12-25T07:07:40.306Z,0
2017-12-25T07:08:48.896Z,0
2017-12-25T07:09:57.764Z,0
2017-12-25T07:11:06.362Z,0
2017-12-25T07:12:14.980Z,0
2017-12-25T07:13:23.579Z,0
2017-12-25T07:14:32.180Z,0
2017-12-25T07:15:40.788Z,0
2017-12-25T07:16:49.394Z,0
2017-12-25T07:17:57.991Z,0
2017-12-25T07:19:06.598Z,0
2017-12-25T07:20:15.204Z,0
2017-12-25T07:21:23.800Z,0
2017-12-25T07:22:32.404Z,0
2017-12-25T07:23:41.024Z,0
2017-12-25T07:24:49.619Z,0
2017-12-25T07:25:58.225Z,0
2017-12-25T07:27:06.822Z,0
2017-12-25T07:28:15.430Z,0
2017-12-25T07:29:24.037Z,0
2017-12-25T07:30:32.628Z,0
2017-12-25T07:31:41.236Z,0
2017-12-25T07:32:49.847Z,0
2017-12-25T07:33:58.449Z,0
2017-12-25T07:35:07.042Z,0
2017-12-25T07:36:15.659Z,0
2017-12-25T07:37:24.260Z,0
2017-12-25T07:38:32.857Z,0
2017-12-25T07:39:41.470Z,0
2017-12-25T07:40:50.071Z,0
2017-12-25T07:41:59.006Z,5
2017-12-25T07:43:07.595Z,5
2017-12-25T07:44:16.209Z,5
2017-12-25T07:45:24.810Z,5
2017-12-25T07:46:33.407Z,5
2017-12-25T07:47:42.008Z,5
2017-12-25T07:48:50.621Z,5
2017-12-25T07:49:59.742Z,5
2017-12-25T07:51:08.336Z,5
2017-12-25T07:52:16.951Z,5
2017-12-25T07:53:25.554Z,5
2017-12-25T07:54:34.222Z,5
2017-12-25T07:55:42.763Z,5
2017-12-25T07:56:51.358Z,5
2017-12-25T07:57:59.973Z,5
2017-12-25T07:59:08.837Z,5
2017-12-25T08:00:17.437Z,5
2017-12-25T08:01:26.050Z,5
2017-12-25T08:02:34.653Z,5
2017-12-25T08:03:43.509Z,5
2017-12-25T08:04:52.120Z,10
2017-12-25T08:06:00.727Z,10
2017-12-25T08:07:09.323Z,10
2017-12-25T08:08:17.929Z,15
2017-12-25T08:09:26.521Z,15
2017-12-25T08:10:35.136Z,20
2017-12-25T08:11:43.740Z,20
2017-12-25T08:12:52.595Z,20
2017-12-25T08:14:01.201Z,20
2017-12-25T08:15:09.811Z,20
2017-12-25T08:16:18.405Z,20
2017-12-25T08:17:27.017Z,25
2017-12-25T08:18:35.625Z,20
2017-12-25T08:19:44.218Z,20
2017-12-25T08:20:52.838Z,25
2017-12-25T08:22:01.433Z,20
2017-12-25T08:23:10.032Z,15
2017-12-25T08:24:18.644Z,10
2017-12-25T08:25:27.236Z,10
2017-12-25T08:26:35.844Z,10
2017-12-25T08:27:44.456Z,10
2017-12-25T08:28:53.053Z,10
2017-12-25T08:30:01.657Z,10
2017-12-25T08:31:10.267Z,10
2017-12-25T08:32:18.863Z,10
2017-12-25T08:33:27.463Z,15
2017-12-25T08:34:36.077Z,15
2017-12-25T08:35:44.676Z,15
2017-12-25T08:36:53.271Z,15
2017-12-25T08:38:01.882Z,15
2017-12-25T08:39:10.490Z,15
2017-12-25T08:40:19.081Z,15
2017-12-25T08:41:27.688Z,20
2017-12-25T08:42:36.296Z,20
2017-12-25T08:43:44.889Z,20
2017-12-25T08:44:53.496Z,20
2017-12-25T08:46:02.110Z,20
2017-12-25T08:47:10.702Z,20
2017-12-25T08:48:19.302Z,20
2017-12-25T08:49:27.919Z,20
2017-12-25T08:50:36.518Z,20
2017-12-25T08:51:45.119Z,20
2017-12-25T08:52:53.716Z,20
2017-12-25T08:54:02.323Z,20
2017-12-25T08:55:10.941Z,25
2017-12-25T08:56:19.535Z,25
2017-12-25T08:57:28.141Z,25
2017-12-25T08:58:36.752Z,25
2017-12-25T08:59:45.349Z,20
2017-12-25T09:00:53.948Z,20
2017-12-25T09:02:02.564Z,20
2017-12-25T09:03:11.168Z,20
2017-12-25T09:04:19.759Z,20
2017-12-25T09:05:28.378Z,25
2017-12-25T09:06:36.982Z,25
2017-12-25T09:07:45.589Z,25
2017-12-25T09:08:54.186Z,20
2017-12-25T09:10:02.782Z,20
2017-12-25T09:11:11.395Z,25
2017-12-25T09:12:20.261Z,20
2017-12-25T09:13:28.851Z,25
2017-12-25T09:14:37.466Z,25
2017-12-25T09:15:46.076Z,25
2017-12-25T09:16:54.925Z,25
2017-12-25T09:18:03.541Z,25
2017-12-25T09:19:12.153Z,25
2017-12-25T09:20:20.747Z,30
2017-12-25T09:21:29.355Z,30
2017-12-25T09:22:37.949Z,30
2017-12-25T09:23:46.828Z,40
2017-12-25T09:24:55.435Z,40
2017-12-25T09:26:04.031Z,35
2017-12-25T09:27:12.906Z,30
2017-12-25T09:28:21.518Z,30
2017-12-25T09:29:30.114Z,30
2017-12-25T09:30:38.725Z,30
2017-12-25T09:31:47.344Z,35
2017-12-25T09:32:55.936Z,35
2017-12-25T09:34:04.538Z,35
2017-12-25T09:35:13.151Z,30
2017-12-25T09:36:21.747Z,30
2017-12-25T09:37:30.345Z,25
2017-12-25T09:38:38.965Z,30
2017-12-25T09:39:47.824Z,30
2017-12-25T09:40:56.419Z,35
2017-12-25T09:42:05.032Z,35
2017-12-25T09:43:13.637Z,30
2017-12-25T09:44:22.228Z,30
2017-12-25T09:45:30.845Z,30
2017-12-25T09:46:39.456Z,25
2017-12-25T09:47:48.053Z,25
2017-12-25T09:48:56.657Z,25
2017-12-25T09:50:05.269Z,25
2017-12-25T09:51:13.873Z,30
2017-12-25T09:52:22.481Z,30
2017-12-25T09:53:31.066Z,25
2017-12-25T09:54:39.677Z,30
2017-12-25T09:55:48.291Z,25
2017-12-25T09:56:56.889Z,25
2017-12-25T09:58:05.759Z,30
2017-12-25T09:59:14.373Z,30
2017-12-25T10:00:22.970Z,30
2017-12-25T10:01:31.576Z,30
2017-12-25T10:02:40.190Z,30
2017-12-25T10:03:48.789Z,25
2017-12-25T10:04:57.388Z,25
2017-12-25T10:06:05.991Z,35
2017-12-25T10:07:14.596Z,40
2017-12-25T10:08:23.476Z,35
2017-12-25T10:09:32.070Z,40
2017-12-25T10:10:40.674Z,35
2017-12-25T10:11:49.287Z,35
2017-12-25T10:12:57.887Z,35
2017-12-25T10:14:06.487Z,35
2017-12-25T10:15:15.103Z,30
2017-12-25T10:16:23.705Z,30
2017-12-25T10:17:32.299Z,45
2017-12-25T10:18:41.175Z,45
2017-12-25T10:19:49.781Z,40
2017-12-25T10:20:58.389Z,30
2017-12-25T10:22:06.985Z,30
2017-12-25T10:23:15.578Z,35
2017-12-25T10:24:24.197Z,35
2017-12-25T10:25:32.800Z,40
2017-12-25T10:26:41.394Z,45
2017-12-25T10:27:50.009Z,35
2017-12-25T10:28:58.613Z,35
2017-12-25T10:30:07.206Z,30
2017-12-25T10:31:15.819Z,35
2017-12-25T10:32:24.428Z,35
2017-12-25T10:33:33.022Z,40
2017-12-25T10:34:41.631Z,40
2017-12-25T10:35:50.247Z,35
2017-12-25T10:36:58.838Z,35
2017-12-25T10:38:07.705Z,40
2017-12-25T10:39:16.325Z,40
2017-12-25T10:40:24.928Z,45
2017-12-25T10:41:33.532Z,50
2017-12-25T10:42:42.148Z,60
2017-12-25T10:43:50.751Z,70
2017-12-25T10:44:59.350Z,70
2017-12-25T10:46:07.962Z,75
2017-12-25T10:47:16.567Z,65
2017-12-25T10:48:25.161Z,60
2017-12-25T10:49:33.771Z,60
2017-12-25T10:50:42.369Z,60
2017-12-25T10:51:50.987Z,55
2017-12-25T10:52:59.591Z,65
2017-12-25T10:54:08.188Z,70
2017-12-25T10:55:16.800Z,70
2017-12-25T10:56:25.411Z,65
2017-12-25T10:57:34.005Z,65
2017-12-25T10:58:42.617Z,65
2017-12-25T10:59:51.229Z,75
2017-12-25T11:00:59.823Z,75
2017-12-25T11:02:08.430Z,75
2017-12-25T11:03:17.315Z,70
2017-12-25T11:04:26.169Z,70
2017-12-25T11:05:34.780Z,70
2017-12-25T11:06:43.373Z,70
2017-12-25T11:07:51.983Z,70
2017-12-25T11:09:00.592Z,65
2017-12-25T11:10:09.185Z,65
2017-12-25T11:11:17.792Z,70
2017-12-25T11:12:26.414Z,70
2017-12-25T11:13:35.271Z,75
2017-12-25T11:14:43.874Z,75
2017-12-25T11:15:52.492Z,65
2017-12-25T11:17:01.349Z,60
2017-12-25T11:18:09.950Z,55
2017-12-25T11:19:18.558Z,55
2017-12-25T11:20:27.164Z,55
2017-12-25T11:21:36.040Z,50
2017-12-25T11:22:44.633Z,60
2017-12-25T11:23:53.240Z,60
2017-12-25T11:25:02.381Z,60
2017-12-25T11:26:10.980Z,65
2017-12-25T11:27:19.575Z,60
2017-12-25T11:28:28.190Z,55
2017-12-25T11:29:36.793Z,60
2017-12-25T11:30:45.645Z,65
2017-12-25T11:31:54.261Z,60
2017-12-25T11:33:02.869Z,60
2017-12-25T11:34:11.479Z,55
2017-12-25T11:35:20.338Z,55
2017-12-25T11:36:28.937Z,70
2017-12-25T11:37:37.560Z,75
2017-12-25T11:38:46.160Z,60
2017-12-25T11:39:54.750Z,60
2017-12-25T11:41:03.367Z,65
2017-12-25T11:42:11.974Z,65
2017-12-25T11:43:20.569Z,60
2017-12-25T11:44:29.177Z,60
2017-12-25T11:45:37.793Z,60
2017-12-25T11:46:46.383Z,60
2017-12-25T11:47:54.993Z,60
2017-12-25T11:49:03.588Z,60
2017-12-25T11:50:12.200Z,55
2017-12-25T11:51:20.808Z,50
2017-12-25T11:52:29.398Z,45
2017-12-25T11:53:38.009Z,50
2017-12-25T11:54:46.623Z,55
2017-12-25T11:55:55.218Z,50
2017-12-25T11:57:03.829Z,45
2017-12-25T11:58:12.443Z,35
2017-12-25T11:59:21.037Z,35
2017-12-25T12:00:29.643Z,40
2017-12-25T12:01:38.260Z,40
2017-12-25T12:02:46.860Z,40
2017-12-25T12:03:55.474Z,35
2017-12-25T12:05:04.069Z,35
2017-12-25T12:06:12.677Z,40
2017-12-25T12:07:21.293Z,35
2017-12-25T12:08:29.886Z,40
2017-12-25T12:09:38.484Z,45
2017-12-25T12:10:47.099Z,40
2017-12-25T12:11:55.697Z,35
2017-12-25T12:13:04.302Z,45
2017-12-25T12:14:12.915Z,40
2017-12-25T12:15:21.520Z,35
2017-12-25T12:16:30.113Z,35
2017-12-25T12:17:38.725Z,25
2017-12-25T12:18:47.330Z,25
2017-12-25T12:19:55.945Z,25
2017-12-25T12:21:04.551Z,30
2017-12-25T12:22:13.145Z,25
2017-12-25T12:23:21.762Z,25
2017-12-25T12:24:30.366Z,25
2017-12-25T12:25:38.960Z,25
2017-12-25T12:26:47.572Z,30
2017-12-25T12:27:56.176Z,30
2017-12-25T12:29:04.771Z,25
2017-12-25T12:30:13.651Z,30
2017-12-25T12:31:22.267Z,30
2017-12-25T12:32:30.862Z,30
2017-12-25T12:33:39.468Z,35
2017-12-25T12:34:48.082Z,30
2017-12-25T12:35:56.677Z,30
2017-12-25T12:37:05.277Z,35
2017-12-25T12:38:13.892Z,45
2017-12-25T12:39:22.751Z,35
2017-12-25T12:40:31.352Z,30
2017-12-25T12:41:39.963Z,25
2017-12-25T12:42:48.575Z,25
2017-12-25T12:43:57.161Z,25
2017-12-25T12:45:05.781Z,25
2017-12-25T12:46:14.387Z,30
2017-12-25T12:47:22.992Z,30
2017-12-25T12:48:31.856Z,30
2017-12-25T12:49:40.454Z,30
2017-12-25T12:50:49.068Z,30
2017-12-25T12:51:57.671Z,30
2017-12-25T12:53:06.263Z,30
2017-12-25T12:54:14.878Z,30
2017-12-25T12:55:23.484Z,35
2017-12-25T12:56:32.085Z,35
2017-12-25T12:57:40.696Z,35
2017-12-25T12:58:49.308Z,30
2017-12-25T12:59:57.898Z,30
2017-12-25T13:01:06.510Z,35
2017-12-25T13:02:15.108Z,30
2017-12-25T13:03:23.722Z,30
2017-12-25T13:04:32.329Z,25
2017-12-25T13:05:41.185Z,30
2017-12-25T13:06:49.796Z,30
2017-12-25T13:07:58.409Z,25
2017-12-25T13:09:07.005Z,25
2017-12-25T13:10:15.614Z,30
2017-12-25T13:11:24.226Z,30
2017-12-25T13:12:32.821Z,35
2017-12-25T13:13:41.422Z,30
2017-12-25T13:14:50.039Z,30
2017-12-25T13:15:58.637Z,30
2017-12-25T13:17:07.248Z,25
2017-12-25T13:18:15.840Z,20
2017-12-25T13:19:24.450Z,25
2017-12-25T13:20:33.066Z,25
2017-12-25T13:21:41.659Z,25
2017-12-25T13:22:50.258Z,25
2017-12-25T13:23:58.881Z,25
2017-12-25T13:25:07.739Z,20
2017-12-25T13:26:16.339Z,20
2017-12-25T13:27:24.950Z,25
2017-12-25T13:28:33.557Z,25
2017-12-25T13:29:42.407Z,20
2017-12-25T13:30:51.019Z,20
2017-12-25T13:31:59.620Z,20
2017-12-25T13:33:08.235Z,20
2017-12-25T13:34:16.834Z,20
2017-12-25T13:35:25.432Z,15
2017-12-25T13:36:34.051Z,15
2017-12-25T13:37:42.651Z,20
2017-12-25T13:38:51.286Z,20
2017-12-25T13:39:59.860Z,20
2017-12-25T13:41:08.466Z,20
2017-12-25T13:42:17.065Z,20
2017-12-25T13:43:25.675Z,20
2017-12-25T13:44:34.285Z,20
2017-12-25T13:45:42.890Z,20
2017-12-25T13:46:51.495Z,20
2017-12-25T13:48:00.091Z,20
2017-12-25T13:49:08.963Z,20
2017-12-25T13:50:17.571Z,20
2017-12-25T13:51:26.162Z,20
2017-12-25T13:52:34.777Z,20
2017-12-25T13:53:43.386Z,20
2017-12-25T13:54:51.985Z,20
2017-12-25T13:56:00.591Z,20
2017-12-25T13:57:09.210Z,20
2017-12-25T13:58:17.805Z,20
2017-12-25T13:59:26.408Z,20
2017-12-25T14:00:35.013Z,20
2017-12-25T14:01:43.624Z,20
2017-12-25T14:02:52.232Z,20
2017-12-25T14:04:00.836Z,20
2017-12-25T14:05:09.435Z,20
2017-12-25T14:06:18.054Z,20
2017-12-25T14:07:26.643Z,20
2017-12-25T14:08:35.248Z,20
2017-12-25T14:09:43.863Z,15
2017-12-25T14:10:52.462Z,15
2017-12-25T14:12:01.069Z,15
2017-12-25T14:13:09.675Z,15
2017-12-25T14:14:18.275Z,15
2017-12-25T14:15:26.886Z,15
2017-12-25T14:16:35.478Z,15
2017-12-25T14:17:44.081Z,15
2017-12-25T14:18:52.694Z,15
2017-12-25T14:20:01.292Z,15
2017-12-25T14:21:09.887Z,15
2017-12-25T14:22:18.502Z,15
2017-12-25T14:23:27.103Z,15
2017-12-25T14:24:35.959Z,15
2017-12-25T14:25:44.571Z,10
2017-12-25T14:26:53.179Z,10
2017-12-25T14:28:01.778Z,10
2017-12-25T14:29:10.386Z,10
2017-12-25T14:30:18.995Z,10
2017-12-25T14:31:27.595Z,10
2017-12-25T14:32:36.202Z,10
2017-12-25T14:33:44.815Z,10
2017-12-25T14:34:53.409Z,10
2017-12-25T14:36:02.012Z,10
2017-12-25T14:37:10.627Z,10
2017-12-25T14:38:19.222Z,10
2017-12-25T14:39:27.819Z,10
2017-12-25T14:40:36.438Z,10
2017-12-25T14:41:45.039Z,10
2017-12-25T14:42:53.631Z,10
2017-12-25T14:44:02.240Z,10
2017-12-25T14:45:11.101Z,10
2017-12-25T14:46:19.712Z,10
2017-12-25T14:47:28.324Z,10
2017-12-25T14:48:36.917Z,10
2017-12-25T14:49:45.542Z,10
2017-12-25T14:50:54.143Z,5
2017-12-25T14:52:02.740Z,5
2017-12-25T14:53:11.355Z,5
2017-12-25T14:54:19.959Z,5
2017-12-25T14:55:28.859Z,5
2017-12-25T14:56:37.472Z,5
2017-12-25T14:57:46.085Z,5
2017-12-25T14:58:54.710Z,5
2017-12-25T15:00:03.553Z,5
2017-12-25T15:01:12.145Z,5
2017-12-25T15:02:20.757Z,5
2017-12-25T15:03:29.366Z,5
2017-12-25T15:04:37.954Z,5
2017-12-25T15:05:46.563Z,5
2017-12-25T15:06:55.173Z,5
2017-12-25T15:08:03.771Z,5
2017-12-25T15:09:12.372Z,5
2017-12-25T15:10:20.988Z,5
2017-12-25T15:11:29.579Z,0
2017-12-25T15:12:38.180Z,0
2017-12-25T15:13:46.783Z,0
2017-12-25T15:14:55.393Z,0
2017-12-25T15:16:04.002Z,0
2017-12-25T15:17:12.599Z,0
2017-12-25T15:18:21.203Z,0
2017-12-25T15:19:30.082Z,0
2017-12-25T15:20:38.671Z,0
2017-12-25T15:21:47.531Z,0
2017-12-25T15:22:56.148Z,0
2017-12-25T15:24:04.741Z,0
2017-12-25T15:25:13.338Z,0
2017-12-25T15:26:21.958Z,0
2017-12-25T15:27:30.558Z,0
2017-12-25T15:28:39.167Z,0
2017-12-25T15:29:48.016Z,0
2017-12-25T15:30:56.617Z,0
2017-12-25T15:32:05.232Z,0
2017-12-25T15:33:13.829Z,0
2017-12-25T15:34:22.427Z,0
2017-12-25T15:35:31.305Z,0
2017-12-25T15:36:39.939Z,0
2017-12-25T15:37:48.492Z,0
2017-12-25T15:38:57.109Z,0
2017-12-25T15:40:05.974Z,0
2017-12-25T15:41:14.567Z,0
2017-12-25T15:42:23.176Z,0
2017-12-25T15:43:31.773Z,0
2017-12-25T15:44:40.415Z,0
2017-12-25T15:45:48.996Z,0
2017-12-25T15:46:57.592Z,0
2017-12-25T15:48:06.209Z,0
2017-12-25T15:49:14.815Z,0
2017-12-25T15:50:23.406Z,0
2017-12-25T15:51:32.021Z,0
2017-12-25T15:52:40.630Z,0
2017-12-25T15:53:49.225Z,0
2017-12-25T15:54:57.831Z,0
2017-12-25T15:56:06.445Z,0
2017-12-25T15:57:15.051Z,0
2017-12-25T15:58:23.651Z,0
2017-12-25T15:59:32.243Z,0
2017-12-25T16:00:40.853Z,0
2017-12-25T16:01:49.463Z,0
2017-12-25T16:02:58.058Z,0
2017-12-25T16:04:06.667Z,0
2017-12-25T16:05:15.278Z,0
2017-12-25T16:06:23.870Z,0
2017-12-25T16:07:32.468Z,0
2017-12-25T16:08:41.084Z,0
2017-12-25T16:09:49.679Z,0
2017-12-25T16:10:58.280Z,0
2017-12-25T16:12:06.883Z,0
2017-12-25T16:13:15.486Z,0
2017-12-25T16:14:24.100Z,0
2017-12-25T16:15:32.693Z,0
2017-12-25T16:16:41.292Z,0
2017-12-25T16:17:49.908Z,0
2017-12-25T16:18:58.504Z,0
2017-12-25T16:20:07.102Z,0
2017-12-25T16:21:15.717Z,0
2017-12-25T16:22:24.317Z,0
2017-12-25T16:23:32.910Z,0
2017-12-25T16:24:41.524Z,0
2017-12-25T16:25:50.127Z,0
2017-12-25T16:26:58.725Z,0
2017-12-25T16:28:07.336Z,0
2017-12-25T16:29:15.946Z,0
2017-12-25T16:30:24.540Z,0
2017-12-25T16:31:33.141Z,0
2017-12-25T16:32:41.753Z,0
2017-12-25T16:33:50.348Z,0
2017-12-25T16:34:59.212Z,0
2017-12-25T16:36:07.827Z,0
2017-12-25T16:37:16.425Z,0
2017-12-25T16:38:25.024Z,0
2017-12-25T16:39:33.634Z,0
2017-12-25T16:40:42.236Z,0